sensor_id;sensor_type;location;lat;lon;timestamp;P1;durP1;ratioP1;P2;durP2;ratioP2
25345;SDS011;13300;51.032;3.710;2022-09-24T00:00:52;41.60;;;25.08;;
25345;SDS011;13300;51.032;3.710;2022-09-24T00:03:21;41.53;;;25.85;;
25345;SDS011;13300;51.032;3.710;2022-09-24T00:05:49;40.15;;;25.02;;
25345;SDS011;13300;51.032;3.710;2022-09-24T00:08:16;38.97;;;24.33;;
25345;SDS011;13300;51.032;3.710;2022-09-24T00:10:43;41.25;;;25.02;;
25345;SDS011;13300;51.032;3.710;2022-09-24T00:13:12;37.13;;;23.75;;
25345;SDS011;13300;51.032;3.710;2022-09-24T00:15:41;35.80;;;23.88;;
25345;SDS011;13300;51.032;3.710;2022-09-24T00:18:12;38.20;;;23.48;;
25345;SDS011;13300;51.032;3.710;2022-09-24T00:20:39;33.72;;;22.25;;
25345;SDS011;13300;51.032;3.710;2022-09-24T00:23:06;36.17;;;22.40;;
25345;SDS011;13300;51.032;3.710;2022-09-24T00:25:33;34.97;;;22.73;;
25345;SDS011;13300;51.032;3.710;2022-09-24T00:28:22;33.33;;;21.33;;
25345;SDS011;13300;51.032;3.710;2022-09-24T00:30:48;35.80;;;22.77;;
25345;SDS011;13300;51.032;3.710;2022-09-24T00:33:13;34.97;;;21.85;;
25345;SDS011;13300;51.032;3.710;2022-09-24T00:35:39;36.03;;;21.92;;
25345;SDS011;13300;51.032;3.710;2022-09-24T00:38:06;32.78;;;20.50;;
25345;SDS011;13300;51.032;3.710;2022-09-24T00:40:33;37.00;;;21.15;;
25345;SDS011;13300;51.032;3.710;2022-09-24T00:43:01;29.90;;;20.80;;
25345;SDS011;13300;51.032;3.710;2022-09-24T00:45:47;29.75;;;21.08;;
25345;SDS011;13300;51.032;3.710;2022-09-24T00:48:13;33.00;;;21.50;;
25345;SDS011;13300;51.032;3.710;2022-09-24T00:50:39;28.55;;;20.15;;
25345;SDS011;13300;51.032;3.710;2022-09-24T00:53:06;33.33;;;19.80;;
25345;SDS011;13300;51.032;3.710;2022-09-24T00:55:39;31.00;;;19.27;;
25345;SDS011;13300;51.032;3.710;2022-09-24T00:58:08;28.23;;;18.48;;
25345;SDS011;13300;51.032;3.710;2022-09-24T01:00:35;25.08;;;17.95;;
25345;SDS011;13300;51.032;3.710;2022-09-24T01:03:07;24.20;;;17.73;;
25345;SDS011;13300;51.032;3.710;2022-09-24T01:05:36;23.95;;;17.00;;
25345;SDS011;13300;51.032;3.710;2022-09-24T01:08:03;23.73;;;17.02;;
25345;SDS011;13300;51.032;3.710;2022-09-24T01:10:38;23.13;;;16.55;;
25345;SDS011;13300;51.032;3.710;2022-09-24T01:16:08;22.70;;;15.32;;
25345;SDS011;13300;51.032;3.710;2022-09-24T01:18:53;20.17;;;14.60;;
25345;SDS011;13300;51.032;3.710;2022-09-24T01:24:13;16.92;;;13.13;;
25345;SDS011;13300;51.032;3.710;2022-09-24T01:27:00;18.60;;;13.88;;
25345;SDS011;13300;51.032;3.710;2022-09-24T01:29:52;18.60;;;13.02;;
25345;SDS011;13300;51.032;3.710;2022-09-24T01:32:37;16.73;;;12.20;;
25345;SDS011;13300;51.032;3.710;2022-09-24T01:37:47;18.35;;;11.73;;
25345;SDS011;13300;51.032;3.710;2022-09-24T01:40:25;17.92;;;12.35;;
25345;SDS011;13300;51.032;3.710;2022-09-24T01:42:53;16.08;;;11.23;;
25345;SDS011;13300;51.032;3.710;2022-09-24T01:45:21;16.48;;;11.50;;
25345;SDS011;13300;51.032;3.710;2022-09-24T01:47:48;15.02;;;11.27;;
25345;SDS011;13300;51.032;3.710;2022-09-24T01:50:15;13.90;;;10.98;;
25345;SDS011;13300;51.032;3.710;2022-09-24T01:55:21;15.15;;;10.88;;
25345;SDS011;13300;51.032;3.710;2022-09-24T01:57:55;15.23;;;10.75;;
25345;SDS011;13300;51.032;3.710;2022-09-24T02:00:41;14.82;;;10.13;;
25345;SDS011;13300;51.032;3.710;2022-09-24T02:03:12;13.93;;;10.60;;
25345;SDS011;13300;51.032;3.710;2022-09-24T02:05:50;14.45;;;11.02;;
25345;SDS011;13300;51.032;3.710;2022-09-24T02:08:24;15.48;;;10.00;;
25345;SDS011;13300;51.032;3.710;2022-09-24T02:13:50;14.63;;;10.27;;
25345;SDS011;13300;51.032;3.710;2022-09-24T02:16:19;16.77;;;10.73;;
25345;SDS011;13300;51.032;3.710;2022-09-24T02:21:16;14.27;;;9.52;;
25345;SDS011;13300;51.032;3.710;2022-09-24T02:23:46;14.20;;;10.00;;
25345;SDS011;13300;51.032;3.710;2022-09-24T02:26:37;16.35;;;10.38;;
25345;SDS011;13300;51.032;3.710;2022-09-24T02:29:03;15.02;;;10.15;;
25345;SDS011;13300;51.032;3.710;2022-09-24T02:31:36;15.82;;;10.98;;
25345;SDS011;13300;51.032;3.710;2022-09-24T02:34:06;16.00;;;10.65;;
25345;SDS011;13300;51.032;3.710;2022-09-24T02:36:54;15.13;;;10.27;;
25345;SDS011;13300;51.032;3.710;2022-09-24T02:39:24;15.90;;;10.65;;
25345;SDS011;13300;51.032;3.710;2022-09-24T02:41:50;17.15;;;10.32;;
25345;SDS011;13300;51.032;3.710;2022-09-24T02:44:17;15.30;;;10.65;;
25345;SDS011;13300;51.032;3.710;2022-09-24T02:46:44;18.55;;;10.52;;
25345;SDS011;13300;51.032;3.710;2022-09-24T02:49:11;16.17;;;11.18;;
25345;SDS011;13300;51.032;3.710;2022-09-24T02:51:38;19.30;;;11.25;;
25345;SDS011;13300;51.032;3.710;2022-09-24T02:54:05;19.15;;;12.07;;
25345;SDS011;13300;51.032;3.710;2022-09-24T02:56:31;15.95;;;11.90;;
25345;SDS011;13300;51.032;3.710;2022-09-24T02:58:58;19.35;;;12.05;;
25345;SDS011;13300;51.032;3.710;2022-09-24T03:01:26;20.80;;;12.70;;
25345;SDS011;13300;51.032;3.710;2022-09-24T03:03:56;22.20;;;12.88;;
25345;SDS011;13300;51.032;3.710;2022-09-24T03:06:22;16.73;;;12.48;;
25345;SDS011;13300;51.032;3.710;2022-09-24T03:08:51;17.65;;;12.80;;
25345;SDS011;13300;51.032;3.710;2022-09-24T03:11:18;17.25;;;11.95;;
25345;SDS011;13300;51.032;3.710;2022-09-24T03:13:45;20.40;;;12.52;;
25345;SDS011;13300;51.032;3.710;2022-09-24T03:16:12;15.32;;;11.57;;
25345;SDS011;13300;51.032;3.710;2022-09-24T03:18:38;18.98;;;12.43;;
25345;SDS011;13300;51.032;3.710;2022-09-24T03:21:05;17.50;;;11.88;;
25345;SDS011;13300;51.032;3.710;2022-09-24T03:23:35;16.65;;;12.18;;
25345;SDS011;13300;51.032;3.710;2022-09-24T03:26:01;17.63;;;11.63;;
25345;SDS011;13300;51.032;3.710;2022-09-24T03:28:27;18.30;;;11.73;;
25345;SDS011;13300;51.032;3.710;2022-09-24T03:30:53;14.63;;;10.48;;
25345;SDS011;13300;51.032;3.710;2022-09-24T03:36:05;14.63;;;10.45;;
25345;SDS011;13300;51.032;3.710;2022-09-24T03:38:33;13.38;;;9.73;;
25345;SDS011;13300;51.032;3.710;2022-09-24T03:41:00;14.20;;;9.18;;
25345;SDS011;13300;51.032;3.710;2022-09-24T03:43:27;15.70;;;10.93;;
25345;SDS011;13300;51.032;3.710;2022-09-24T03:45:53;13.27;;;9.23;;
25345;SDS011;13300;51.032;3.710;2022-09-24T03:48:19;14.65;;;9.45;;
25345;SDS011;13300;51.032;3.710;2022-09-24T03:50:46;12.68;;;10.07;;
25345;SDS011;13300;51.032;3.710;2022-09-24T03:53:12;14.02;;;10.05;;
25345;SDS011;13300;51.032;3.710;2022-09-24T03:55:45;15.98;;;10.82;;
25345;SDS011;13300;51.032;3.710;2022-09-24T03:58:13;16.10;;;11.27;;
25345;SDS011;13300;51.032;3.710;2022-09-24T04:00:40;16.52;;;12.00;;
25345;SDS011;13300;51.032;3.710;2022-09-24T04:03:06;17.25;;;11.10;;
25345;SDS011;13300;51.032;3.710;2022-09-24T04:05:32;17.35;;;11.68;;
25345;SDS011;13300;51.032;3.710;2022-09-24T04:07:58;16.77;;;11.48;;
25345;SDS011;13300;51.032;3.710;2022-09-24T04:10:25;19.02;;;12.23;;
25345;SDS011;13300;51.032;3.710;2022-09-24T04:12:52;15.25;;;11.50;;
25345;SDS011;13300;51.032;3.710;2022-09-24T04:15:18;17.83;;;12.68;;
25345;SDS011;13300;51.032;3.710;2022-09-24T04:18:05;20.95;;;13.65;;
25345;SDS011;13300;51.032;3.710;2022-09-24T04:20:29;19.23;;;13.73;;
25345;SDS011;13300;51.032;3.710;2022-09-24T04:22:57;17.98;;;13.43;;
25345;SDS011;13300;51.032;3.710;2022-09-24T04:25:24;18.63;;;12.88;;
25345;SDS011;13300;51.032;3.710;2022-09-24T04:27:51;18.75;;;13.18;;
25345;SDS011;13300;51.032;3.710;2022-09-24T04:30:22;21.65;;;13.60;;
25345;SDS011;13300;51.032;3.710;2022-09-24T04:32:49;26.85;;;14.20;;
25345;SDS011;13300;51.032;3.710;2022-09-24T04:35:15;20.02;;;13.63;;
25345;SDS011;13300;51.032;3.710;2022-09-24T04:37:43;20.77;;;14.18;;
25345;SDS011;13300;51.032;3.710;2022-09-24T04:40:08;19.75;;;13.55;;
25345;SDS011;13300;51.032;3.710;2022-09-24T04:42:36;22.08;;;13.48;;
25345;SDS011;13300;51.032;3.710;2022-09-24T04:45:02;20.38;;;13.40;;
25345;SDS011;13300;51.032;3.710;2022-09-24T04:47:30;18.45;;;12.63;;
25345;SDS011;13300;51.032;3.710;2022-09-24T04:49:55;18.13;;;11.95;;
25345;SDS011;13300;51.032;3.710;2022-09-24T04:52:21;19.00;;;12.63;;
25345;SDS011;13300;51.032;3.710;2022-09-24T04:54:50;16.60;;;11.60;;
25345;SDS011;13300;51.032;3.710;2022-09-24T04:57:16;16.58;;;12.23;;
25345;SDS011;13300;51.032;3.710;2022-09-24T04:59:42;18.38;;;12.48;;
25345;SDS011;13300;51.032;3.710;2022-09-24T05:02:08;17.30;;;12.65;;
25345;SDS011;13300;51.032;3.710;2022-09-24T05:04:35;20.85;;;13.07;;
25345;SDS011;13300;51.032;3.710;2022-09-24T05:07:01;20.17;;;13.50;;
25345;SDS011;13300;51.032;3.710;2022-09-24T05:09:27;19.08;;;12.98;;
25345;SDS011;13300;51.032;3.710;2022-09-24T05:11:56;19.00;;;13.52;;
25345;SDS011;13300;51.032;3.710;2022-09-24T05:14:25;20.43;;;13.63;;
25345;SDS011;13300;51.032;3.710;2022-09-24T05:16:51;18.25;;;13.55;;
25345;SDS011;13300;51.032;3.710;2022-09-24T05:19:17;18.55;;;12.43;;
25345;SDS011;13300;51.032;3.710;2022-09-24T05:21:43;20.45;;;13.38;;
25345;SDS011;13300;51.032;3.710;2022-09-24T05:24:10;19.20;;;12.30;;
25345;SDS011;13300;51.032;3.710;2022-09-24T05:26:36;19.63;;;12.73;;
25345;SDS011;13300;51.032;3.710;2022-09-24T05:29:20;16.67;;;12.20;;
25345;SDS011;13300;51.032;3.710;2022-09-24T05:31:46;18.88;;;12.70;;
25345;SDS011;13300;51.032;3.710;2022-09-24T05:34:12;18.60;;;12.13;;
25345;SDS011;13300;51.032;3.710;2022-09-24T05:36:38;20.50;;;12.52;;
25345;SDS011;13300;51.032;3.710;2022-09-24T05:39:04;18.80;;;12.73;;
25345;SDS011;13300;51.032;3.710;2022-09-24T05:41:33;18.08;;;12.70;;
25345;SDS011;13300;51.032;3.710;2022-09-24T05:43:59;20.55;;;13.07;;
25345;SDS011;13300;51.032;3.710;2022-09-24T05:46:25;18.52;;;13.43;;
25345;SDS011;13300;51.032;3.710;2022-09-24T05:48:51;23.95;;;13.60;;
25345;SDS011;13300;51.032;3.710;2022-09-24T05:51:17;20.38;;;14.35;;
25345;SDS011;13300;51.032;3.710;2022-09-24T05:53:42;19.40;;;14.80;;
25345;SDS011;13300;51.032;3.710;2022-09-24T05:56:08;22.00;;;14.10;;
25345;SDS011;13300;51.032;3.710;2022-09-24T05:58:34;18.40;;;13.07;;
25345;SDS011;13300;51.032;3.710;2022-09-24T06:01:00;19.75;;;13.73;;
25345;SDS011;13300;51.032;3.710;2022-09-24T06:03:26;20.40;;;13.10;;
25345;SDS011;13300;51.032;3.710;2022-09-24T06:05:53;20.58;;;13.25;;
25345;SDS011;13300;51.032;3.710;2022-09-24T06:08:29;18.60;;;12.50;;
25345;SDS011;13300;51.032;3.710;2022-09-24T06:11:01;17.40;;;12.55;;
25345;SDS011;13300;51.032;3.710;2022-09-24T06:13:29;19.02;;;12.68;;
25345;SDS011;13300;51.032;3.710;2022-09-24T06:16:04;17.73;;;12.35;;
25345;SDS011;13300;51.032;3.710;2022-09-24T06:18:33;17.65;;;12.73;;
25345;SDS011;13300;51.032;3.710;2022-09-24T06:21:00;17.70;;;12.15;;
25345;SDS011;13300;51.032;3.710;2022-09-24T06:23:27;18.25;;;12.32;;
25345;SDS011;13300;51.032;3.710;2022-09-24T06:25:54;19.08;;;11.18;;
25345;SDS011;13300;51.032;3.710;2022-09-24T06:28:21;17.58;;;11.50;;
25345;SDS011;13300;51.032;3.710;2022-09-24T06:30:46;22.20;;;12.63;;
25345;SDS011;13300;51.032;3.710;2022-09-24T06:33:12;20.63;;;12.10;;
25345;SDS011;13300;51.032;3.710;2022-09-24T06:35:42;20.35;;;12.43;;
25345;SDS011;13300;51.032;3.710;2022-09-24T06:38:12;16.45;;;12.23;;
25345;SDS011;13300;51.032;3.710;2022-09-24T06:40:40;16.70;;;11.70;;
25345;SDS011;13300;51.032;3.710;2022-09-24T06:43:08;17.48;;;11.65;;
25345;SDS011;13300;51.032;3.710;2022-09-24T06:45:35;17.65;;;12.52;;
25345;SDS011;13300;51.032;3.710;2022-09-24T06:48:01;18.08;;;12.70;;
25345;SDS011;13300;51.032;3.710;2022-09-24T06:50:29;19.50;;;12.80;;
25345;SDS011;13300;51.032;3.710;2022-09-24T06:52:56;19.65;;;13.02;;
25345;SDS011;13300;51.032;3.710;2022-09-24T06:55:22;20.88;;;13.73;;
25345;SDS011;13300;51.032;3.710;2022-09-24T06:57:48;19.55;;;13.60;;
25345;SDS011;13300;51.032;3.710;2022-09-24T07:00:14;19.10;;;13.27;;
25345;SDS011;13300;51.032;3.710;2022-09-24T07:02:41;20.25;;;13.13;;
25345;SDS011;13300;51.032;3.710;2022-09-24T07:05:07;19.30;;;13.40;;
25345;SDS011;13300;51.032;3.710;2022-09-24T07:07:33;19.90;;;13.75;;
25345;SDS011;13300;51.032;3.710;2022-09-24T07:10:04;19.90;;;13.60;;
25345;SDS011;13300;51.032;3.710;2022-09-24T07:12:31;19.55;;;13.73;;
25345;SDS011;13300;51.032;3.710;2022-09-24T07:14:58;19.63;;;13.40;;
25345;SDS011;13300;51.032;3.710;2022-09-24T07:17:28;19.33;;;13.40;;
25345;SDS011;13300;51.032;3.710;2022-09-24T07:19:54;20.73;;;13.68;;
25345;SDS011;13300;51.032;3.710;2022-09-24T07:22:20;21.17;;;13.63;;
25345;SDS011;13300;51.032;3.710;2022-09-24T07:24:46;21.88;;;15.80;;
25345;SDS011;13300;51.032;3.710;2022-09-24T07:27:12;22.75;;;15.63;;
25345;SDS011;13300;51.032;3.710;2022-09-24T07:29:38;22.48;;;15.80;;
25345;SDS011;13300;51.032;3.710;2022-09-24T07:32:04;20.38;;;15.05;;
25345;SDS011;13300;51.032;3.710;2022-09-24T07:34:42;22.67;;;16.02;;
25345;SDS011;13300;51.032;3.710;2022-09-24T07:37:08;25.95;;;17.23;;
25345;SDS011;13300;51.032;3.710;2022-09-24T07:39:34;25.33;;;17.65;;
25345;SDS011;13300;51.032;3.710;2022-09-24T07:42:00;25.67;;;18.00;;
25345;SDS011;13300;51.032;3.710;2022-09-24T07:44:26;28.13;;;17.55;;
25345;SDS011;13300;51.032;3.710;2022-09-24T07:46:53;25.95;;;17.98;;
25345;SDS011;13300;51.032;3.710;2022-09-24T07:49:19;25.70;;;18.13;;
25345;SDS011;13300;51.032;3.710;2022-09-24T07:51:46;25.48;;;18.40;;
25345;SDS011;13300;51.032;3.710;2022-09-24T07:54:12;25.55;;;17.55;;
25345;SDS011;13300;51.032;3.710;2022-09-24T07:56:37;26.80;;;17.90;;
25345;SDS011;13300;51.032;3.710;2022-09-24T07:59:03;26.25;;;18.70;;
25345;SDS011;13300;51.032;3.710;2022-09-24T08:01:33;28.52;;;19.33;;
25345;SDS011;13300;51.032;3.710;2022-09-24T08:03:59;29.08;;;19.63;;
25345;SDS011;13300;51.032;3.710;2022-09-24T08:06:25;27.63;;;19.02;;
25345;SDS011;13300;51.032;3.710;2022-09-24T08:08:51;26.05;;;18.85;;
25345;SDS011;13300;51.032;3.710;2022-09-24T08:11:17;27.60;;;19.60;;
25345;SDS011;13300;51.032;3.710;2022-09-24T08:13:45;27.98;;;20.23;;
25345;SDS011;13300;51.032;3.710;2022-09-24T08:16:11;33.05;;;20.90;;
25345;SDS011;13300;51.032;3.710;2022-09-24T08:18:37;30.95;;;20.73;;
25345;SDS011;13300;51.032;3.710;2022-09-24T08:21:07;29.92;;;20.88;;
25345;SDS011;13300;51.032;3.710;2022-09-24T08:23:34;33.05;;;20.98;;
25345;SDS011;13300;51.032;3.710;2022-09-24T08:26:01;31.25;;;21.60;;
25345;SDS011;13300;51.032;3.710;2022-09-24T08:28:27;31.00;;;21.67;;
25345;SDS011;13300;51.032;3.710;2022-09-24T08:31:00;31.40;;;22.95;;
25345;SDS011;13300;51.032;3.710;2022-09-24T08:33:27;30.17;;;21.58;;
25345;SDS011;13300;51.032;3.710;2022-09-24T08:35:53;36.50;;;22.80;;
25345;SDS011;13300;51.032;3.710;2022-09-24T08:38:19;31.27;;;22.70;;
25345;SDS011;13300;51.032;3.710;2022-09-24T08:40:50;29.60;;;21.83;;
25345;SDS011;13300;51.032;3.710;2022-09-24T08:46:13;33.75;;;23.40;;
25345;SDS011;13300;51.032;3.710;2022-09-24T08:49:08;33.08;;;23.00;;
25345;SDS011;13300;51.032;3.710;2022-09-24T08:51:42;29.27;;;22.55;;
25345;SDS011;13300;51.032;3.710;2022-09-24T08:54:30;33.45;;;23.73;;
25345;SDS011;13300;51.032;3.710;2022-09-24T08:56:59;32.08;;;23.38;;
25345;SDS011;13300;51.032;3.710;2022-09-24T08:59:31;32.75;;;24.20;;
25345;SDS011;13300;51.032;3.710;2022-09-24T09:07:20;36.97;;;25.98;;
25345;SDS011;13300;51.032;3.710;2022-09-24T09:12:35;42.45;;;27.30;;
25345;SDS011;13300;51.032;3.710;2022-09-24T09:15:05;39.40;;;26.38;;
25345;SDS011;13300;51.032;3.710;2022-09-24T09:17:33;40.90;;;27.48;;
25345;SDS011;13300;51.032;3.710;2022-09-24T09:20:37;41.58;;;27.77;;
25345;SDS011;13300;51.032;3.710;2022-09-24T09:25:46;37.40;;;26.33;;
25345;SDS011;13300;51.032;3.710;2022-09-24T09:28:19;40.83;;;27.50;;
25345;SDS011;13300;51.032;3.710;2022-09-24T09:39:29;35.33;;;24.75;;
25345;SDS011;13300;51.032;3.710;2022-09-24T09:42:13;34.38;;;24.90;;
25345;SDS011;13300;51.032;3.710;2022-09-24T09:44:51;36.85;;;26.52;;
25345;SDS011;13300;51.032;3.710;2022-09-24T09:47:21;33.65;;;24.48;;
25345;SDS011;13300;51.032;3.710;2022-09-24T09:50:10;35.55;;;24.52;;
25345;SDS011;13300;51.032;3.710;2022-09-24T09:52:50;33.35;;;23.58;;
25345;SDS011;13300;51.032;3.710;2022-09-24T09:55:23;34.38;;;23.10;;
25345;SDS011;13300;51.032;3.710;2022-09-24T09:57:53;33.67;;;21.02;;
25345;SDS011;13300;51.032;3.710;2022-09-24T10:02:59;33.50;;;23.15;;
25345;SDS011;13300;51.032;3.710;2022-09-24T10:05:25;33.42;;;23.30;;
25345;SDS011;13300;51.032;3.710;2022-09-24T10:07:55;34.78;;;22.80;;
25345;SDS011;13300;51.032;3.710;2022-09-24T10:10:22;30.80;;;20.75;;
25345;SDS011;13300;51.032;3.710;2022-09-24T10:13:04;28.98;;;20.05;;
25345;SDS011;13300;51.032;3.710;2022-09-24T10:15:49;22.45;;;15.88;;
25345;SDS011;13300;51.032;3.710;2022-09-24T10:20:59;19.13;;;10.82;;
25345;SDS011;13300;51.032;3.710;2022-09-24T10:23:38;14.70;;;10.35;;
25345;SDS011;13300;51.032;3.710;2022-09-24T10:26:06;13.20;;;9.95;;
25345;SDS011;13300;51.032;3.710;2022-09-24T10:28:33;13.13;;;9.82;;
25345;SDS011;13300;51.032;3.710;2022-09-24T10:31:31;12.23;;;8.68;;
25345;SDS011;13300;51.032;3.710;2022-09-24T10:34:01;16.30;;;8.18;;
25345;SDS011;13300;51.032;3.710;2022-09-24T10:39:14;13.60;;;6.97;;
25345;SDS011;13300;51.032;3.710;2022-09-24T10:41:47;15.55;;;7.70;;
25345;SDS011;13300;51.032;3.710;2022-09-24T10:44:16;11.23;;;7.43;;
25345;SDS011;13300;51.032;3.710;2022-09-24T10:55:39;14.48;;;8.68;;
25345;SDS011;13300;51.032;3.710;2022-09-24T11:07:27;11.77;;;5.95;;
25345;SDS011;13300;51.032;3.710;2022-09-24T11:09:35;13.00;;;7.30;;
25345;SDS011;13300;51.032;3.710;2022-09-24T11:15:17;8.35;;;3.80;;
25345;SDS011;13300;51.032;3.710;2022-09-24T11:25:38;6.68;;;2.95;;
25345;SDS011;13300;51.032;3.710;2022-09-24T11:28:53;9.23;;;3.20;;
25345;SDS011;13300;51.032;3.710;2022-09-24T11:37:17;11.27;;;3.85;;
25345;SDS011;13300;51.032;3.710;2022-09-24T11:40:10;11.60;;;4.20;;
25345;SDS011;13300;51.032;3.710;2022-09-24T11:53:38;18.02;;;6.78;;
25345;SDS011;13300;51.032;3.710;2022-09-24T11:58:45;12.38;;;4.47;;
25345;SDS011;13300;51.032;3.710;2022-09-24T12:01:19;11.18;;;4.00;;
25345;SDS011;13300;51.032;3.710;2022-09-24T12:03:56;10.88;;;3.40;;
25345;SDS011;13300;51.032;3.710;2022-09-24T12:06:55;9.73;;;3.08;;
25345;SDS011;13300;51.032;3.710;2022-09-24T12:09:35;11.15;;;3.95;;
25345;SDS011;13300;51.032;3.710;2022-09-24T12:12:07;10.68;;;2.97;;
25345;SDS011;13300;51.032;3.710;2022-09-24T12:17:50;8.18;;;2.60;;
25345;SDS011;13300;51.032;3.710;2022-09-24T12:20:27;8.68;;;2.80;;
25345;SDS011;13300;51.032;3.710;2022-09-24T12:23:04;9.32;;;2.60;;
25345;SDS011;13300;51.032;3.710;2022-09-24T12:25:37;11.23;;;3.05;;
25345;SDS011;13300;51.032;3.710;2022-09-24T12:28:08;8.23;;;2.50;;
25345;SDS011;13300;51.032;3.710;2022-09-24T12:38:44;11.23;;;3.00;;
25345;SDS011;13300;51.032;3.710;2022-09-24T12:41:33;11.20;;;3.03;;
25345;SDS011;13300;51.032;3.710;2022-09-24T12:44:22;6.40;;;2.90;;
25345;SDS011;13300;51.032;3.710;2022-09-24T12:46:55;8.68;;;3.00;;
25345;SDS011;13300;51.032;3.710;2022-09-24T12:51:49;10.52;;;2.22;;
25345;SDS011;13300;51.032;3.710;2022-09-24T12:54:21;7.03;;;2.75;;
25345;SDS011;13300;51.032;3.710;2022-09-24T12:56:48;8.13;;;2.85;;
25345;SDS011;13300;51.032;3.710;2022-09-24T12:59:27;11.48;;;3.35;;
25345;SDS011;13300;51.032;3.710;2022-09-24T13:01:53;9.27;;;2.72;;
25345;SDS011;13300;51.032;3.710;2022-09-24T13:06:45;11.13;;;3.17;;
25345;SDS011;13300;51.032;3.710;2022-09-24T13:14:40;8.68;;;2.67;;
25345;SDS011;13300;51.032;3.710;2022-09-24T13:17:12;14.27;;;3.75;;
25345;SDS011;13300;51.032;3.710;2022-09-24T13:19:43;8.63;;;2.75;;
25345;SDS011;13300;51.032;3.710;2022-09-24T13:27:35;11.73;;;2.80;;
25345;SDS011;13300;51.032;3.710;2022-09-24T13:32:52;9.27;;;2.67;;
25345;SDS011;13300;51.032;3.710;2022-09-24T13:35:22;8.80;;;2.90;;
25345;SDS011;13300;51.032;3.710;2022-09-24T13:37:54;9.75;;;2.67;;
25345;SDS011;13300;51.032;3.710;2022-09-24T13:40:33;10.60;;;3.47;;
25345;SDS011;13300;51.032;3.710;2022-09-24T13:43:10;8.02;;;2.45;;
25345;SDS011;13300;51.032;3.710;2022-09-24T13:45:41;10.20;;;2.20;;
25345;SDS011;13300;51.032;3.710;2022-09-24T13:50:58;11.00;;;1.92;;
25345;SDS011;13300;51.032;3.710;2022-09-24T13:53:32;9.00;;;2.40;;
25345;SDS011;13300;51.032;3.710;2022-09-24T13:56:14;7.30;;;2.10;;
25345;SDS011;13300;51.032;3.710;2022-09-24T13:58:42;6.65;;;2.03;;
25345;SDS011;13300;51.032;3.710;2022-09-24T14:03:40;6.13;;;2.17;;
25345;SDS011;13300;51.032;3.710;2022-09-24T14:06:14;5.93;;;2.00;;
25345;SDS011;13300;51.032;3.710;2022-09-24T14:08:45;9.68;;;2.05;;
25345;SDS011;13300;51.032;3.710;2022-09-24T14:11:19;9.20;;;2.05;;
25345;SDS011;13300;51.032;3.710;2022-09-24T14:13:50;6.03;;;1.70;;
25345;SDS011;13300;51.032;3.710;2022-09-24T14:16:17;7.32;;;1.70;;
25345;SDS011;13300;51.032;3.710;2022-09-24T14:18:44;7.68;;;2.10;;
25345;SDS011;13300;51.032;3.710;2022-09-24T14:21:24;8.57;;;2.50;;
25345;SDS011;13300;51.032;3.710;2022-09-24T14:24:00;8.75;;;2.03;;
25345;SDS011;13300;51.032;3.710;2022-09-24T14:27:04;10.40;;;2.55;;
25345;SDS011;13300;51.032;3.710;2022-09-24T14:37:49;7.63;;;1.70;;
25345;SDS011;13300;51.032;3.710;2022-09-24T14:40:18;6.00;;;1.80;;
25345;SDS011;13300;51.032;3.710;2022-09-24T14:42:47;6.78;;;1.88;;
25345;SDS011;13300;51.032;3.710;2022-09-24T14:45:18;6.35;;;1.75;;
25345;SDS011;13300;51.032;3.710;2022-09-24T14:48:02;7.85;;;1.50;;
25345;SDS011;13300;51.032;3.710;2022-09-24T14:50:42;7.85;;;1.60;;
25345;SDS011;13300;51.032;3.710;2022-09-24T14:53:27;8.35;;;1.88;;
25345;SDS011;13300;51.032;3.710;2022-09-24T14:55:58;10.18;;;2.50;;
25345;SDS011;13300;51.032;3.710;2022-09-24T15:01:04;10.45;;;2.45;;
25345;SDS011;13300;51.032;3.710;2022-09-24T15:03:42;5.32;;;2.33;;
25345;SDS011;13300;51.032;3.710;2022-09-24T15:06:15;9.77;;;3.40;;
25345;SDS011;13300;51.032;3.710;2022-09-24T15:11:22;9.30;;;2.30;;
25345;SDS011;13300;51.032;3.710;2022-09-24T15:13:56;7.18;;;2.22;;
25345;SDS011;13300;51.032;3.710;2022-09-24T15:16:33;9.15;;;2.40;;
25345;SDS011;13300;51.032;3.710;2022-09-24T15:19:34;9.38;;;2.70;;
25345;SDS011;13300;51.032;3.710;2022-09-24T15:21:55;9.00;;;2.60;;
25345;SDS011;13300;51.032;3.710;2022-09-24T15:24:21;8.52;;;2.63;;
25345;SDS011;13300;51.032;3.710;2022-09-24T15:26:57;10.30;;;2.63;;
25345;SDS011;13300;51.032;3.710;2022-09-24T15:29:26;7.07;;;2.30;;
25345;SDS011;13300;51.032;3.710;2022-09-24T15:31:52;8.70;;;2.10;;
25345;SDS011;13300;51.032;3.710;2022-09-24T15:34:20;9.32;;;2.30;;
25345;SDS011;13300;51.032;3.710;2022-09-24T15:36:46;6.15;;;2.10;;
25345;SDS011;13300;51.032;3.710;2022-09-24T15:39:13;9.60;;;2.85;;
25345;SDS011;13300;51.032;3.710;2022-09-24T15:41:41;15.77;;;3.67;;
25345;SDS011;13300;51.032;3.710;2022-09-24T15:44:07;9.20;;;2.40;;
25345;SDS011;13300;51.032;3.710;2022-09-24T15:46:42;9.52;;;2.53;;
25345;SDS011;13300;51.032;3.710;2022-09-24T15:49:08;8.93;;;2.58;;
25345;SDS011;13300;51.032;3.710;2022-09-24T15:51:35;11.55;;;3.38;;
25345;SDS011;13300;51.032;3.710;2022-09-24T15:54:03;8.38;;;2.63;;
25345;SDS011;13300;51.032;3.710;2022-09-24T15:56:29;9.88;;;2.75;;
25345;SDS011;13300;51.032;3.710;2022-09-24T15:58:54;12.00;;;2.92;;
25345;SDS011;13300;51.032;3.710;2022-09-24T16:01:20;10.73;;;2.70;;
25345;SDS011;13300;51.032;3.710;2022-09-24T16:03:46;13.55;;;3.50;;
25345;SDS011;13300;51.032;3.710;2022-09-24T16:06:12;11.38;;;3.28;;
25345;SDS011;13300;51.032;3.710;2022-09-24T16:08:38;10.43;;;3.22;;
25345;SDS011;13300;51.032;3.710;2022-09-24T16:11:04;10.30;;;3.40;;
25345;SDS011;13300;51.032;3.710;2022-09-24T16:13:30;11.77;;;3.47;;
25345;SDS011;13300;51.032;3.710;2022-09-24T16:15:56;11.18;;;3.92;;
25345;SDS011;13300;51.032;3.710;2022-09-24T16:18:22;11.80;;;3.75;;
25345;SDS011;13300;51.032;3.710;2022-09-24T16:20:50;12.88;;;5.55;;
25345;SDS011;13300;51.032;3.710;2022-09-24T16:23:16;14.02;;;4.22;;
25345;SDS011;13300;51.032;3.710;2022-09-24T16:25:55;11.90;;;4.38;;
25345;SDS011;13300;51.032;3.710;2022-09-24T16:28:22;13.10;;;4.90;;
25345;SDS011;13300;51.032;3.710;2022-09-24T16:30:48;16.00;;;5.20;;
25345;SDS011;13300;51.032;3.710;2022-09-24T16:33:14;11.43;;;4.25;;
25345;SDS011;13300;51.032;3.710;2022-09-24T16:35:39;13.07;;;3.88;;
25345;SDS011;13300;51.032;3.710;2022-09-24T16:38:05;10.88;;;3.38;;
25345;SDS011;13300;51.032;3.710;2022-09-24T16:40:31;11.43;;;4.28;;
25345;SDS011;13300;51.032;3.710;2022-09-24T16:42:57;14.77;;;3.75;;
25345;SDS011;13300;51.032;3.710;2022-09-24T16:45:23;6.63;;;2.60;;
25345;SDS011;13300;51.032;3.710;2022-09-24T16:47:48;13.48;;;2.65;;
25345;SDS011;13300;51.032;3.710;2022-09-24T16:50:14;11.65;;;3.38;;
25345;SDS011;13300;51.032;3.710;2022-09-24T16:52:40;9.75;;;3.08;;
25345;SDS011;13300;51.032;3.710;2022-09-24T16:55:09;8.98;;;2.90;;
25345;SDS011;13300;51.032;3.710;2022-09-24T16:57:37;9.02;;;2.72;;
25345;SDS011;13300;51.032;3.710;2022-09-24T17:00:04;9.27;;;2.95;;
25345;SDS011;13300;51.032;3.710;2022-09-24T17:02:34;8.68;;;2.42;;
25345;SDS011;13300;51.032;3.710;2022-09-24T17:05:01;12.48;;;2.70;;
25345;SDS011;13300;51.032;3.710;2022-09-24T17:07:31;21.23;;;5.10;;
25345;SDS011;13300;51.032;3.710;2022-09-24T17:09:57;11.07;;;2.83;;
25345;SDS011;13300;51.032;3.710;2022-09-24T17:12:49;45.22;;;14.27;;